sensor_id;sensor_type;location;lat;lon;timestamp;pressure;altitude;pressure_sealevel;temperature;humidity
30302;BME280;17111;52.130;5.028;2023-05-20T00:01:00;102667.84;;;20.13;46.37
30302;BME280;17111;52.130;5.028;2023-05-20T00:03:26;102667.00;;;20.12;45.72
30302;BME280;17111;52.130;5.028;2023-05-20T00:05:54;102667.00;;;20.12;45.49
30302;BME280;17111;52.130;5.028;2023-05-20T00:08:21;102662.59;;;20.11;45.69
30302;BME280;17111;52.130;5.028;2023-05-20T00:10:48;102666.28;;;20.10;45.96
30302;BME280;17111;52.130;5.028;2023-05-20T00:13:14;102674.34;;;20.10;46.10
30302;BME280;17111;52.130;5.028;2023-05-20T00:15:41;102682.44;;;20.10;45.57
30302;BME280;17111;52.130;5.028;2023-05-20T00:18:08;102671.75;;;20.09;45.80
30302;BME280;17111;52.130;5.028;2023-05-20T00:20:34;102669.06;;;20.09;45.70
30302;BME280;17111;52.130;5.028;2023-05-20T00:23:01;102668.22;;;20.08;46.11
30302;BME280;17111;52.130;5.028;2023-05-20T00:25:28;102669.22;;;20.07;45.65
30302;BME280;17111;52.130;5.028;2023-05-20T00:27:57;102672.75;;;20.08;45.48
30302;BME280;17111;52.130;5.028;2023-05-20T00:30:23;102671.03;;;20.07;46.19
30302;BME280;17111;52.130;5.028;2023-05-20T00:32:50;102664.81;;;20.06;45.90
30302;BME280;17111;52.130;5.028;2023-05-20T00:35:16;102674.69;;;20.06;45.39
30302;BME280;17111;52.130;5.028;2023-05-20T00:37:43;102669.31;;;20.06;45.61
30302;BME280;17111;52.130;5.028;2023-05-20T00:40:10;102671.16;;;20.05;46.23
30302;BME280;17111;52.130;5.028;2023-05-20T00:42:40;102668.47;;;20.05;46.16
30302;BME280;17111;52.130;5.028;2023-05-20T00:45:07;102670.28;;;20.05;45.49
30302;BME280;17111;52.130;5.028;2023-05-20T00:47:34;102669.44;;;20.04;45.84
30302;BME280;17111;52.130;5.028;2023-05-20T00:50:05;102665.91;;;20.04;46.28
30302;BME280;17111;52.130;5.028;2023-05-20T00:52:32;102662.34;;;20.03;46.30
30302;BME280;17111;52.130;5.028;2023-05-20T00:54:59;102666.75;;;20.04;45.98
30302;BME280;17111;52.130;5.028;2023-05-20T00:57:26;102648.16;;;20.01;46.50
30302;BME280;17111;52.130;5.028;2023-05-20T00:59:53;102645.47;;;20.01;46.19
30302;BME280;17111;52.130;5.028;2023-05-20T01:02:19;102650.84;;;20.01;45.80
30302;BME280;17111;52.130;5.028;2023-05-20T01:04:46;102642.91;;;20.00;46.02
30302;BME280;17111;52.130;5.028;2023-05-20T01:07:17;102640.34;;;19.98;46.41
30302;BME280;17111;52.130;5.028;2023-05-20T01:09:52;102643.03;;;19.98;46.39
30302;BME280;17111;52.130;5.028;2023-05-20T01:12:27;102632.38;;;19.96;45.94
30302;BME280;17111;52.130;5.028;2023-05-20T01:14:58;102641.28;;;19.97;46.30
30302;BME280;17111;52.130;5.028;2023-05-20T01:17:30;102634.34;;;19.94;45.74
30302;BME280;17111;52.130;5.028;2023-05-20T01:19:58;102639.59;;;19.96;46.02
30302;BME280;17111;52.130;5.028;2023-05-20T01:22:26;102634.44;;;19.93;45.91
30302;BME280;17111;52.130;5.028;2023-05-20T01:24:53;102637.13;;;19.93;45.98
30302;BME280;17111;52.130;5.028;2023-05-20T01:27:21;102641.66;;;19.92;45.88
30302;BME280;17111;52.130;5.028;2023-05-20T01:29:49;102627.50;;;19.90;45.95
30302;BME280;17111;52.130;5.028;2023-05-20T01:32:22;102623.91;;;19.90;45.87
30302;BME280;17111;52.130;5.028;2023-05-20T01:34:51;102624.91;;;19.89;45.92
30302;BME280;17111;52.130;5.028;2023-05-20T01:37:21;102623.06;;;19.89;45.87
30302;BME280;17111;52.130;5.028;2023-05-20T01:39:49;102615.97;;;19.88;46.07
30302;BME280;17111;52.130;5.028;2023-05-20T01:42:16;102610.72;;;19.87;45.67
30302;BME280;17111;52.130;5.028;2023-05-20T01:44:43;102616.97;;;19.87;45.81
30302;BME280;17111;52.130;5.028;2023-05-20T01:47:10;102614.38;;;19.86;45.99
30302;BME280;17111;52.130;5.028;2023-05-20T01:49:36;102612.56;;;19.86;46.52
30302;BME280;17111;52.130;5.028;2023-05-20T01:52:03;102606.44;;;19.84;46.05
30302;BME280;17111;52.130;5.028;2023-05-20T01:54:30;102612.69;;;19.85;46.07
30302;BME280;17111;52.130;5.028;2023-05-20T01:56:57;102610.13;;;19.83;46.08
30302;BME280;17111;52.130;5.028;2023-05-20T01:59:23;102609.28;;;19.83;46.09
30302;BME280;17111;52.130;5.028;2023-05-20T02:01:50;102610.22;;;19.82;45.96
30302;BME280;17111;52.130;5.028;2023-05-20T02:04:17;102614.75;;;19.81;46.05
30302;BME280;17111;52.130;5.028;2023-05-20T02:06:44;102612.19;;;19.80;45.92
30302;BME280;17111;52.130;5.028;2023-05-20T02:09:11;102605.97;;;19.79;46.37
30302;BME280;17111;52.130;5.028;2023-05-20T02:11:38;102606.94;;;19.78;46.72
30302;BME280;17111;52.130;5.028;2023-05-20T02:14:04;102609.63;;;19.78;46.16
30302;BME280;17111;52.130;5.028;2023-05-20T02:16:31;102610.59;;;19.77;45.95
30302;BME280;17111;52.130;5.028;2023-05-20T02:18:58;102610.59;;;19.77;46.61
30302;BME280;17111;52.130;5.028;2023-05-20T02:21:24;102608.03;;;19.76;46.55
30302;BME280;17111;52.130;5.028;2023-05-20T02:23:51;102610.88;;;19.74;46.40
30302;BME280;17111;52.130;5.028;2023-05-20T02:26:18;102609.97;;;19.73;46.55
30302;BME280;17111;52.130;5.028;2023-05-20T02:28:45;102609.97;;;19.73;46.54
30302;BME280;17111;52.130;5.028;2023-05-20T02:31:16;102610.97;;;19.72;46.64
30302;BME280;17111;52.130;5.028;2023-05-20T02:33:43;102611.09;;;19.71;46.66
30302;BME280;17111;52.130;5.028;2023-05-20T02:36:10;102611.94;;;19.71;46.28
30302;BME280;17111;52.130;5.028;2023-05-20T02:38:37;102610.25;;;19.70;46.70
30302;BME280;17111;52.130;5.028;2023-05-20T02:41:04;102602.19;;;19.70;46.42
30302;BME280;17111;52.130;5.028;2023-05-20T02:43:32;102602.28;;;19.69;46.61
30302;BME280;17111;52.130;5.028;2023-05-20T02:45:59;102597.75;;;19.69;45.99
30302;BME280;17111;52.130;5.028;2023-05-20T02:48:25;102599.59;;;19.69;46.28
30302;BME280;17111;52.130;5.028;2023-05-20T02:50:52;102599.72;;;19.67;46.16
30302;BME280;17111;52.130;5.028;2023-05-20T02:53:19;102591.66;;;19.67;46.17
30302;BME280;17111;52.130;5.028;2023-05-20T02:55:46;102593.59;;;19.65;46.69
30302;BME280;17111;52.130;5.028;2023-05-20T02:58:13;102598.97;;;19.65;46.16
30302;BME280;17111;52.130;5.028;2023-05-20T03:00:40;102601.66;;;19.65;46.29
30302;BME280;17111;52.130;5.028;2023-05-20T03:03:07;102594.47;;;19.66;46.82
30302;BME280;17111;52.130;5.028;2023-05-20T03:05:36;102593.72;;;19.64;46.43
30302;BME280;17111;52.130;5.028;2023-05-20T03:08:08;102594.72;;;19.63;46.88
30302;BME280;17111;52.130;5.028;2023-05-20T03:10:38;102590.19;;;19.63;46.68
30302;BME280;17111;52.130;5.028;2023-05-20T03:13:06;102595.69;;;19.62;46.86
30302;BME280;17111;52.130;5.028;2023-05-20T03:15:37;102585.84;;;19.61;46.33
30302;BME280;17111;52.130;5.028;2023-05-20T03:18:05;102593.06;;;19.60;46.64
30302;BME280;17111;52.130;5.028;2023-05-20T03:20:34;102592.22;;;19.60;46.39
30302;BME280;17111;52.130;5.028;2023-05-20T03:23:03;102598.59;;;19.59;46.18
30302;BME280;17111;52.130;5.028;2023-05-20T03:25:29;102600.44;;;19.58;46.71
30302;BME280;17111;52.130;5.028;2023-05-20T03:27:56;102597.72;;;19.58;46.49
30302;BME280;17111;52.130;5.028;2023-05-20T03:30:26;102595.03;;;19.58;46.63
30302;BME280;17111;52.130;5.028;2023-05-20T03:32:54;102604.06;;;19.57;46.21
30302;BME280;17111;52.130;5.028;2023-05-20T03:35:23;102600.53;;;19.57;46.70
30302;BME280;17111;52.130;5.028;2023-05-20T03:37:50;102604.06;;;19.57;46.38
30302;BME280;17111;52.130;5.028;2023-05-20T03:40:19;102605.06;;;19.56;46.79
30302;BME280;17111;52.130;5.028;2023-05-20T03:42:48;102604.19;;;19.56;46.98
30302;BME280;17111;52.130;5.028;2023-05-20T03:45:18;102611.41;;;19.55;46.81
30302;BME280;17111;52.130;5.028;2023-05-20T03:47:44;102601.50;;;19.56;46.72
30302;BME280;17111;52.130;5.028;2023-05-20T03:50:11;102599.69;;;19.56;46.74
30302;BME280;17111;52.130;5.028;2023-05-20T03:52:38;102603.34;;;19.55;46.85
30302;BME280;17111;52.130;5.028;2023-05-20T03:55:06;102597.97;;;19.55;46.73
30302;BME280;17111;52.130;5.028;2023-05-20T03:57:33;102595.28;;;19.55;46.82
30302;BME280;17111;52.130;5.028;2023-05-20T04:00:03;102599.81;;;19.55;46.59
30302;BME280;17111;52.130;5.028;2023-05-20T04:02:34;102589.91;;;19.55;46.72
30302;BME280;17111;52.130;5.028;2023-05-20T04:05:01;102593.56;;;19.54;46.49
30302;BME280;17111;52.130;5.028;2023-05-20T04:07:27;102588.19;;;19.54;46.94
30302;BME280;17111;52.130;5.028;2023-05-20T04:09:55;102586.34;;;19.55;46.79
30302;BME280;17111;52.130;5.028;2023-05-20T04:12:22;102590.88;;;19.54;46.86
30302;BME280;17111;52.130;5.028;2023-05-20T04:14:48;102596.25;;;19.54;46.90
30302;BME280;17111;52.130;5.028;2023-05-20T04:17:15;102595.38;;;19.54;46.40
30302;BME280;17111;52.130;5.028;2023-05-20T04:19:42;102595.28;;;19.55;46.70
30302;BME280;17111;52.130;5.028;2023-05-20T04:22:10;102594.44;;;19.55;46.47
30302;BME280;17111;52.130;5.028;2023-05-20T04:24:36;102594.44;;;19.55;46.77
30302;BME280;17111;52.130;5.028;2023-05-20T04:27:03;102589.03;;;19.55;46.34
30302;BME280;17111;52.130;5.028;2023-05-20T04:29:31;102599.81;;;19.55;46.60
30302;BME280;17111;52.130;5.028;2023-05-20T04:31:59;102594.44;;;19.55;46.38
30302;BME280;17111;52.130;5.028;2023-05-20T04:34:29;102596.13;;;19.56;46.75
30302;BME280;17111;52.130;5.028;2023-05-20T04:37:00;102596.13;;;19.56;46.14
30302;BME280;17111;52.130;5.028;2023-05-20T04:39:27;102591.75;;;19.55;46.40
30302;BME280;17111;52.130;5.028;2023-05-20T04:41:53;102600.66;;;19.55;46.85
30302;BME280;17111;52.130;5.028;2023-05-20T04:44:20;102598.81;;;19.56;46.45
30302;BME280;17111;52.130;5.028;2023-05-20T04:46:47;102601.50;;;19.56;46.48
30302;BME280;17111;52.130;5.028;2023-05-20T04:49:14;102610.44;;;19.56;46.35
30302;BME280;17111;52.130;5.028;2023-05-20T04:51:43;102610.44;;;19.56;46.55
30302;BME280;17111;52.130;5.028;2023-05-20T04:54:10;102609.44;;;19.57;46.17
30302;BME280;17111;52.130;5.028;2023-05-20T04:56:36;102612.03;;;19.59;46.66
30302;BME280;17111;52.130;5.028;2023-05-20T04:59:03;102611.19;;;19.58;46.63
30302;BME280;17111;52.130;5.028;2023-05-20T05:01:30;102607.50;;;19.59;46.86
30302;BME280;17111;52.130;5.028;2023-05-20T05:03:56;102602.13;;;19.59;46.74
30302;BME280;17111;52.130;5.028;2023-05-20T05:06:23;102599.44;;;19.59;46.85
30302;BME280;17111;52.130;5.028;2023-05-20T05:08:49;102599.31;;;19.61;46.17
30302;BME280;17111;52.130;5.028;2023-05-20T05:11:16;102593.06;;;19.60;46.65
30302;BME280;17111;52.130;5.028;2023-05-20T05:13:43;102596.63;;;19.61;46.91
30302;BME280;17111;52.130;5.028;2023-05-20T05:16:09;102599.25;;;19.62;46.43
30302;BME280;17111;52.130;5.028;2023-05-20T05:18:36;102599.25;;;19.62;46.80
30302;BME280;17111;52.130;5.028;2023-05-20T05:21:04;102600.94;;;19.63;46.37
30302;BME280;17111;52.130;5.028;2023-05-20T05:23:32;102598.13;;;19.65;46.52
30302;BME280;17111;52.130;5.028;2023-05-20T05:25:58;102598.88;;;19.67;46.74
30302;BME280;17111;52.130;5.028;2023-05-20T05:28:25;102598.88;;;19.67;46.55
30302;BME280;17111;52.130;5.028;2023-05-20T05:30:55;102595.19;;;19.68;46.76
30302;BME280;17111;52.130;5.028;2023-05-20T05:33:22;102594.09;;;19.70;46.70
30302;BME280;17111;52.130;5.028;2023-05-20T05:35:49;102586.75;;;19.72;46.13
30302;BME280;17111;52.130;5.028;2023-05-20T05:38:16;102579.44;;;19.75;46.32
30302;BME280;17111;52.130;5.028;2023-05-20T05:40:43;102581.84;;;19.78;46.76
30302;BME280;17111;52.130;5.028;2023-05-20T05:43:09;102579.91;;;19.80;46.15
30302;BME280;17111;52.130;5.028;2023-05-20T05:45:36;102587.84;;;19.81;46.78
30302;BME280;17111;52.130;5.028;2023-05-20T05:48:03;102578.69;;;19.84;46.50
30302;BME280;17111;52.130;5.028;2023-05-20T05:50:29;102574.00;;;19.86;46.01
30302;BME280;17111;52.130;5.028;2023-05-20T05:52:56;102581.00;;;19.88;46.34
30302;BME280;17111;52.130;5.028;2023-05-20T05:55:23;102583.56;;;19.90;45.94
30302;BME280;17111;52.130;5.028;2023-05-20T05:57:49;102575.38;;;19.91;46.41
30302;BME280;17111;52.130;5.028;2023-05-20T06:00:16;102584.16;;;19.93;45.61
30302;BME280;17111;52.130;5.028;2023-05-20T06:02:43;102583.94;;;19.96;46.25
30302;BME280;17111;52.130;5.028;2023-05-20T06:05:10;102589.22;;;19.98;46.55
30302;BME280;17111;52.130;5.028;2023-05-20T06:07:37;102588.22;;;19.99;45.59
30302;BME280;17111;52.130;5.028;2023-05-20T06:10:04;102583.56;;;20.01;45.62
30302;BME280;17111;52.130;5.028;2023-05-20T06:12:31;102584.28;;;20.03;46.08
30302;BME280;17111;52.130;5.028;2023-05-20T06:14:57;102587.69;;;20.05;45.89
30302;BME280;17111;52.130;5.028;2023-05-20T06:17:24;102587.59;;;20.07;45.66
30302;BME280;17111;52.130;5.028;2023-05-20T06:19:51;102581.09;;;20.09;46.18
30302;BME280;17111;52.130;5.028;2023-05-20T06:22:17;102586.38;;;20.11;46.06
30302;BME280;17111;52.130;5.028;2023-05-20T06:24:44;102586.22;;;20.12;45.93
30302;BME280;17111;52.130;5.028;2023-05-20T06:27:11;102578.03;;;20.14;45.94
30302;BME280;17111;52.130;5.028;2023-05-20T06:29:38;102574.38;;;20.15;45.81
30302;BME280;17111;52.130;5.028;2023-05-20T06:32:06;102575.09;;;20.17;45.86
30302;BME280;17111;52.130;5.028;2023-05-20T06:34:32;102588.44;;;20.18;45.74
30302;BME280;17111;52.130;5.028;2023-05-20T06:36:59;102574.84;;;20.20;45.44
30302;BME280;17111;52.130;5.028;2023-05-20T06:39:26;102579.22;;;20.21;45.22
30302;BME280;17111;52.130;5.028;2023-05-20T06:41:52;102570.16;;;20.22;45.32
30302;BME280;17111;52.130;5.028;2023-05-20T06:44:19;102567.38;;;20.24;45.75
30302;BME280;17111;52.130;5.028;2023-05-20T06:46:45;102574.44;;;20.25;45.05
30302;BME280;17111;52.130;5.028;2023-05-20T06:49:12;102571.75;;;20.25;44.95
30302;BME280;17111;52.130;5.028;2023-05-20T06:51:39;102561.84;;;20.25;45.15
30302;BME280;17111;52.130;5.028;2023-05-20T06:54:05;102566.38;;;20.25;45.27
30302;BME280;17111;52.130;5.028;2023-05-20T06:56:32;102564.44;;;20.27;45.57
30302;BME280;17111;52.130;5.028;2023-05-20T06:58:58;102561.75;;;20.27;45.68
30302;BME280;17111;52.130;5.028;2023-05-20T07:01:25;102557.19;;;20.27;45.54
30302;BME280;17111;52.130;5.028;2023-05-20T07:03:52;102559.03;;;20.27;45.37
30302;BME280;17111;52.130;5.028;2023-05-20T07:06:19;102556.34;;;20.27;45.11
30302;BME280;17111;52.130;5.028;2023-05-20T07:08:45;102559.91;;;20.27;45.09
30302;BME280;17111;52.130;5.028;2023-05-20T07:11:12;102557.19;;;20.27;45.58
30302;BME280;17111;52.130;5.028;2023-05-20T07:13:38;102555.50;;;20.26;45.49
30302;BME280;17111;52.130;5.028;2023-05-20T07:16:05;102563.56;;;20.26;45.35
30302;BME280;17111;52.130;5.028;2023-05-20T07:18:32;102552.81;;;20.26;45.34
30302;BME280;17111;52.130;5.028;2023-05-20T07:20:58;102558.19;;;20.26;45.59
30302;BME280;17111;52.130;5.028;2023-05-20T07:23:25;102550.97;;;20.27;45.74
30302;BME280;17111;52.130;5.028;2023-05-20T07:25:52;102558.19;;;20.26;45.41
30302;BME280;17111;52.130;5.028;2023-05-20T07:28:19;102542.88;;;20.27;45.07
30302;BME280;17111;52.130;5.028;2023-05-20T07:30:46;102540.19;;;20.27;45.68
30302;BME280;17111;52.130;5.028;2023-05-20T07:33:16;102535.78;;;20.26;45.46
30302;BME280;17111;52.130;5.028;2023-05-20T07:35:43;102537.50;;;20.27;45.65
30302;BME280;17111;52.130;5.028;2023-05-20T07:38:10;102524.88;;;20.27;45.23
30302;BME280;17111;52.130;5.028;2023-05-20T07:40:38;102533.81;;;20.28;45.23
30302;BME280;17111;52.130;5.028;2023-05-20T07:43:07;102533.81;;;20.28;45.08
30302;BME280;17111;52.130;5.028;2023-05-20T07:45:34;102527.44;;;20.29;45.36
30302;BME280;17111;52.130;5.028;2023-05-20T07:48:03;102526.44;;;20.30;45.49
30302;BME280;17111;52.130;5.028;2023-05-20T07:50:30;102520.09;;;20.31;45.30
30302;BME280;17111;52.130;5.028;2023-05-20T07:52:57;102519.13;;;20.32;45.08
30302;BME280;17111;52.130;5.028;2023-05-20T07:55:24;102519.13;;;20.32;45.54
30302;BME280;17111;52.130;5.028;2023-05-20T07:57:50;102518.13;;;20.33;45.60
30302;BME280;17111;52.130;5.028;2023-05-20T08:00:17;102517.13;;;20.34;45.06
30302;BME280;17111;52.130;5.028;2023-05-20T08:02:44;102509.94;;;20.34;45.48
30302;BME280;17111;52.130;5.028;2023-05-20T08:05:11;102515.19;;;20.36;45.37
30302;BME280;17111;52.130;5.028;2023-05-20T08:07:38;102518.72;;;20.36;45.58
30302;BME280;17111;52.130;5.028;2023-05-20T08:10:05;102511.66;;;20.35;45.28
30302;BME280;17111;52.130;5.028;2023-05-20T08:12:32;102516.03;;;20.36;45.53
30302;BME280;17111;52.130;5.028;2023-05-20T08:14:59;102515.91;;;20.38;45.05
30302;BME280;17111;52.130;5.028;2023-05-20T08:17:25;102507.81;;;20.38;44.96
30302;BME280;17111;52.130;5.028;2023-05-20T08:19:52;102520.31;;;20.39;45.48
30302;BME280;17111;52.130;5.028;2023-05-20T08:22:18;102519.34;;;20.40;44.84
30302;BME280;17111;52.130;5.028;2023-05-20T08:24:45;102512.94;;;20.41;45.49
30302;BME280;17111;52.130;5.028;2023-05-20T08:27:12;102519.19;;;20.41;44.97
30302;BME280;17111;52.130;5.028;2023-05-20T08:29:38;102510.16;;;20.42;44.92
30302;BME280;17111;52.130;5.028;2023-05-20T08:32:05;102512.84;;;20.42;45.00
30302;BME280;17111;52.130;5.028;2023-05-20T08:34:31;102519.09;;;20.43;44.99
30302;BME280;17111;52.130;5.028;2023-05-20T08:36:58;102515.41;;;20.44;44.58
30302;BME280;17111;52.130;5.028;2023-05-20T08:39:25;102509.88;;;20.45;45.22
30302;BME280;17111;52.130;5.028;2023-05-20T08:41:52;102506.31;;;20.45;44.96
30302;BME280;17111;52.130;5.028;2023-05-20T08:44:20;102495.44;;;20.46;45.13
30302;BME280;17111;52.130;5.028;2023-05-20T08:46:48;102501.69;;;20.47;44.74
30302;BME280;17111;52.130;5.028;2023-05-20T08:49:15;102495.31;;;20.48;45.20
30302;BME280;17111;52.130;5.028;2023-05-20T08:51:42;102493.50;;;20.49;44.86
30302;BME280;17111;52.130;5.028;2023-05-20T08:54:09;102491.66;;;20.49;44.57
30302;BME280;17111;52.130;5.028;2023-05-20T08:56:37;102490.66;;;20.50;44.95
30302;BME280;17111;52.130;5.028;2023-05-20T08:59:05;102487.84;;;20.52;44.97
30302;BME280;17111;52.130;5.028;2023-05-20T09:01:33;102476.94;;;20.53;44.95
30302;BME280;17111;52.130;5.028;2023-05-20T09:04:04;102473.25;;;20.54;45.21
30302;BME280;17111;52.130;5.028;2023-05-20T09:06:44;102473.25;;;20.54;45.04
30302;BME280;17111;52.130;5.028;2023-05-20T09:09:14;102482.91;;;20.57;45.15
30302;BME280;17111;52.130;5.028;2023-05-20T09:11:41;102481.81;;;20.59;45.33
30302;BME280;17111;52.130;5.028;2023-05-20T09:14:08;102472.75;;;20.60;45.32
30302;BME280;17111;52.130;5.028;2023-05-20T09:16:34;102468.19;;;20.61;44.97
30302;BME280;17111;52.130;5.028;2023-05-20T09:19:01;102475.19;;;20.63;44.94
30302;BME280;17111;52.130;5.028;2023-05-20T09:21:31;102481.28;;;20.65;44.95
30302;BME280;17111;52.130;5.028;2023-05-20T09:24:00;102461.31;;;20.68;45.17
30302;BME280;17111;52.130;5.028;2023-05-20T09:26:28;102472.69;;;20.72;45.08
30302;BME280;17111;52.130;5.028;2023-05-20T09:28:58;102465.19;;;20.75;45.12
30302;BME280;17111;52.130;5.028;2023-05-20T09:31:34;102465.78;;;20.79;45.41
30302;BME280;17111;52.130;5.028;2023-05-20T09:34:04;102450.06;;;20.84;44.69
30302;BME280;17111;52.130;5.028;2023-05-20T09:36:33;102447.97;;;20.87;44.74
30302;BME280;17111;52.130;5.028;2023-05-20T09:39:02;102446.56;;;20.93;45.24
30302;BME280;17111;52.130;5.028;2023-05-20T09:41:34;102447.00;;;20.98;44.90
30302;BME280;17111;52.130;5.028;2023-05-20T09:44:04;102439.38;;;21.03;44.81
30302;BME280;17111;52.130;5.028;2023-05-20T09:46:33;102439.81;;;21.08;45.38
30302;BME280;17111;52.130;5.028;2023-05-20T09:49:00;102424.25;;;21.12;44.68
30302;BME280;17111;52.130;5.028;2023-05-20T09:51:27;102431.06;;;21.16;45.10
30302;BME280;17111;52.130;5.028;2023-05-20T09:53:55;102429.81;;;21.20;44.71
30302;BME280;17111;52.130;5.028;2023-05-20T09:56:22;102427.53;;;21.25;44.67
30302;BME280;17111;52.130;5.028;2023-05-20T09:58:52;102435.22;;;21.30;44.86
30302;BME280;17111;52.130;5.028;2023-05-20T10:01:23;102434.84;;;21.34;44.55
30302;BME280;17111;52.130;5.028;2023-05-20T10:03:51;102427.34;;;21.38;44.67
30302;BME280;17111;52.130;5.028;2023-05-20T10:06:41;102436.84;;;21.42;44.85
30302;BME280;17111;52.130;5.028;2023-05-20T10:09:34;102432.03;;;21.46;44.37
30302;BME280;17111;52.130;5.028;2023-05-20T10:12:33;102424.53;;;21.49;44.72
30302;BME280;17111;52.130;5.028;2023-05-20T10:15:09;102425.97;;;21.53;44.44
30302;BME280;17111;52.130;5.028;2023-05-20T10:20:46;102412.06;;;21.58;44.37
30302;BME280;17111;52.130;5.028;2023-05-20T10:23:23;102416.47;;;21.59;44.05
30302;BME280;17111;52.130;5.028;2023-05-20T10:25:55;102415.47;;;21.60;44.42
30302;BME280;17111;52.130;5.028;2023-05-20T10:28:30;102412.78;;;21.60;44.02
30302;BME280;17111;52.130;5.028;2023-05-20T10:30:58;102409.94;;;21.61;44.10
30302;BME280;17111;52.130;5.028;2023-05-20T10:33:26;102410.66;;;21.63;44.37
30302;BME280;17111;52.130;5.028;2023-05-20T10:35:57;102397.88;;;21.65;43.98
30302;BME280;17111;52.130;5.028;2023-05-20T10:38:24;102389.78;;;21.65;44.29
30302;BME280;17111;52.130;5.028;2023-05-20T10:40:52;102395.03;;;21.67;44.10
30302;BME280;17111;52.130;5.028;2023-05-20T10:43:25;102391.34;;;21.68;44.27
30302;BME280;17111;52.130;5.028;2023-05-20T10:45:55;102385.69;;;21.71;43.92
30302;BME280;17111;52.130;5.028;2023-05-20T10:48:30;102391.91;;;21.72;44.16
30302;BME280;17111;52.130;5.028;2023-05-20T10:51:01;102386.38;;;21.73;43.96
30302;BME280;17111;52.130;5.028;2023-05-20T10:53:39;102374.56;;;21.74;44.16
30302;BME280;17111;52.130;5.028;2023-05-20T10:56:16;102366.19;;;21.77;43.75
30302;BME280;17111;52.130;5.028;2023-05-20T10:58:43;102371.31;;;21.80;43.54
30302;BME280;17111;52.130;5.028;2023-05-20T11:01:10;102365.78;;;21.82;43.98
30302;BME280;17111;52.130;5.028;2023-05-20T11:03:37;102366.50;;;21.84;43.78
30302;BME280;17111;52.130;5.028;2023-05-20T11:06:12;102383.38;;;21.86;43.69
30302;BME280;17111;52.130;5.028;2023-05-20T11:08:43;102366.91;;;21.89;43.59
30302;BME280;17111;52.130;5.028;2023-05-20T11:11:11;102374.88;;;21.90;43.53
30302;BME280;17111;52.130;5.028;2023-05-20T11:13:38;102364.94;;;21.91;43.62
30302;BME280;17111;52.130;5.028;2023-05-20T11:16:05;102362.09;;;21.92;43.59
30302;BME280;17111;52.130;5.028;2023-05-20T11:18:32;102357.53;;;21.93;43.35
30302;BME280;17111;52.130;5.028;2023-05-20T11:20:59;102351.28;;;21.92;43.44
30302;BME280;17111;52.130;5.028;2023-05-20T11:23:28;102355.84;;;21.92;43.47
30302;BME280;17111;52.130;5.028;2023-05-20T11:25:55;102352.88;;;21.95;43.33
30302;BME280;17111;52.130;5.028;2023-05-20T11:28:22;102354.56;;;21.96;43.61
30302;BME280;17111;52.130;5.028;2023-05-20T11:30:51;102356.09;;;21.99;43.27
30302;BME280;17111;52.130;5.028;2023-05-20T11:33:18;102353.28;;;22.00;43.63
30302;BME280;17111;52.130;5.028;2023-05-20T11:35:55;102344.19;;;22.01;43.24
30302;BME280;17111;52.130;5.028;2023-05-20T11:38:23;102339.50;;;22.03;43.25
30302;BME280;17111;52.130;5.028;2023-05-20T11:40:52;102337.78;;;22.02;43.24
30302;BME280;17111;52.130;5.028;2023-05-20T11:43:20;102340.47;;;22.02;43.28
30302;BME280;17111;52.130;5.028;2023-05-20T11:45:52;102332.53;;;22.01;43.29
30302;BME280;17111;52.130;5.028;2023-05-20T11:48:19;102341.31;;;22.03;43.25
30302;BME280;17111;52.130;5.028;2023-05-20T11:50:47;102334.09;;;22.03;43.32
30302;BME280;17111;52.130;5.028;2023-05-20T11:53:18;102327.69;;;22.04;43.07
30302;BME280;17111;52.130;5.028;2023-05-20T11:55:47;102336.50;;;22.06;43.29
30302;BME280;17111;52.130;5.028;2023-05-20T11:58:25;102325.84;;;22.05;43.29
30302;BME280;17111;52.130;5.028;2023-05-20T12:00:52;102331.94;;;22.07;42.93
30302;BME280;17111;52.130;5.028;2023-05-20T12:03:30;102331.09;;;22.06;43.16
30302;BME280;17111;52.130;5.028;2023-05-20T12:06:00;102331.09;;;22.06;43.30
30302;BME280;17111;52.130;5.028;2023-05-20T12:08:26;102320.28;;;22.06;43.23
30302;BME280;17111;52.130;5.028;2023-05-20T12:10:53;102315.72;;;22.07;43.17
30302;BME280;17111;52.130;5.028;2023-05-20T12:13:20;102320.16;;;22.08;43.14
30302;BME280;17111;52.130;5.028;2023-05-20T12:15:48;102315.59;;;22.08;43.29
30302;BME280;17111;52.130;5.028;2023-05-20T12:18:15;102311.75;;;22.11;43.21
30302;BME280;17111;52.130;5.028;2023-05-20T12:20:41;102305.50;;;22.10;43.22
30302;BME280;17111;52.130;5.028;2023-05-20T12:23:08;102304.53;;;22.11;43.14
30302;BME280;17111;52.130;5.028;2023-05-20T12:25:34;102305.38;;;22.12;43.47
30302;BME280;17111;52.130;5.028;2023-05-20T12:28:01;102302.56;;;22.13;43.23
30302;BME280;17111;52.130;5.028;2023-05-20T12:30:28;102295.28;;;22.14;43.09
30302;BME280;17111;52.130;5.028;2023-05-20T12:32:55;102297.88;;;22.15;43.20
30302;BME280;17111;52.130;5.028;2023-05-20T12:35:38;102294.16;;;22.16;42.96
30302;BME280;17111;52.130;5.028;2023-05-20T12:38:05;102311.91;;;22.19;43.14
30302;BME280;17111;52.130;5.028;2023-05-20T12:40:33;102307.22;;;22.21;43.00
30302;BME280;17111;52.130;5.028;2023-05-20T12:43:02;102303.53;;;22.22;42.92
30302;BME280;17111;52.130;5.028;2023-05-20T12:45:28;102289.88;;;22.24;42.94
30302;BME280;17111;52.130;5.028;2023-05-20T12:47:56;102292.59;;;22.24;43.08
30302;BME280;17111;52.130;5.028;2023-05-20T12:50:23;102290.72;;;22.24;43.37
30302;BME280;17111;52.130;5.028;2023-05-20T12:52:51;102290.72;;;22.24;43.20
30302;BME280;17111;52.130;5.028;2023-05-20T12:55:17;102287.03;;;22.25;43.07
30302;BME280;17111;52.130;5.028;2023-05-20T12:57:44;102286.19;;;22.25;43.08